Time;durP1;ratioP1;P1;durP2;ratioP2;P2;SDS_P1;SDS_P2;PMS_P1;PMS_P2;Temp;Humidity;BMP_temperature;BMP_pressure;BME280_temperature;BME280_humidity;BME280_pressure;Samples;Min_cycle;Max_cycle;Signal;HPM_P1;HPM_P2
2022/10/19 00:00:34;;;;;;;10.68;5.47;;;;;;;;;;5072617;28;20450;-60
2022/10/19 00:03:01;;;;;;;7.00;5.67;;;;;;;;;;5072792;28;20221;-60
2022/10/19 00:05:28;;;;;;;6.37;5.40;;;;;;;;;;5072621;28;20447;-60
2022/10/19 00:07:55;;;;;;;9.43;5.20;;;;;;;;;;5072515;28;20454;-60
2022/10/19 00:10:23;;;;;;;8.50;5.33;;;;;;;;;;5072463;28;20526;-60
2022/10/19 00:12:50;;;;;;;6.40;5.70;;;;;;;;;;5072394;28;20442;-60
2022/10/19 00:15:17;;;;;;;7.60;6.43;;;;;;;;;;5072576;28;20539;-60
2022/10/19 00:17:44;;;;;;;7.60;5.70;;;;;;;;;;5072481;28;20527;-60
2022/10/19 00:20:11;;;;;;;7.37;4.80;;;;;;;;;;5072453;28;20448;-60
2022/10/19 00:22:38;;;;;;;14.57;6.23;;;;;;;;;;5072590;28;20475;-60
2022/10/19 00:25:06;;;;;;;6.93;5.07;;;;;;;;;;5076010;28;20777;-60
2022/10/19 00:27:34;;;;;;;10.43;5.80;;;;;;;;;;5076192;28;20780;-60
2022/10/19 00:30:01;;;;;;;9.73;4.90;;;;;;;;;;5076329;28;20451;-60
2022/10/19 00:32:28;;;;;;;12.10;5.07;;;;;;;;;;5076025;28;20463;-60
2022/10/19 00:34:55;;;;;;;8.70;5.40;;;;;;;;;;5076049;28;20539;-60
2022/10/19 00:37:22;;;;;;;9.47;5.10;;;;;;;;;;5075858;28;20447;-60
2022/10/19 00:39:49;;;;;;;13.30;5.10;;;;;;;;;;5075690;28;20451;-60
2022/10/19 00:42:16;;;;;;;4.63;4.18;;;;;;;;;;5075830;28;20447;-60
2022/10/19 00:45:05;;;;;;;13.17;5.10;;;;;;;;;;5075670;28;20638;-60
2022/10/19 00:47:32;;;;;;;8.77;6.90;;;;;;;;;;5075895;28;20558;-60
2022/10/19 00:49:59;;;;;;;5.97;4.70;;;;;;;;;;5075591;28;20452;-60
2022/10/19 00:52:27;;;;;;;6.20;4.87;;;;;;;;;;5075489;28;20935;-60
2022/10/19 00:54:55;;;;;;;7.53;4.83;;;;;;;;;;5075657;28;20784;-60
2022/10/19 00:57:22;;;;;;;8.03;4.83;;;;;;;;;;5075599;28;20451;-60
2022/10/19 00:59:49;;;;;;;8.32;4.38;;;;;;;;;;5075475;28;20451;-60
2022/10/19 01:02:18;;;;;;;5.97;4.20;;;;;;;;;;5075358;28;20276;-60
2022/10/19 01:04:46;;;;;;;6.33;4.23;;;;;;;;;;5075314;28;20543;-60
2022/10/19 01:07:13;;;;;;;4.57;4.18;;;;;;;;;;5075468;28;20880;-60
2022/10/19 01:09:40;;;;;;;7.53;3.77;;;;;;;;;;5075749;28;20272;-60
2022/10/19 01:12:09;;;;;;;7.20;4.63;;;;;;;;;;5075325;28;20447;-59
2022/10/19 01:14:39;;;;;;;6.17;4.83;;;;;;;;;;5075277;28;20813;-60
2022/10/19 01:17:10;;;;;;;4.57;3.73;;;;;;;;;;5075187;28;20562;-60
2022/10/19 01:19:58;;;;;;;9.30;4.27;;;;;;;;;;5075339;28;20455;-60
2022/10/19 01:22:31;;;;;;;6.43;3.97;;;;;;;;;;5075114;28;20447;-60
2022/10/19 01:25:05;;;;;;;5.40;3.50;;;;;;;;;;5075101;28;20543;-60
2022/10/19 01:27:42;;;;;;;7.90;3.57;;;;;;;;;;5074940;28;20537;-60
2022/10/19 01:30:15;;;;;;;6.05;4.05;;;;;;;;;;5075152;28;20455;-60
2022/10/19 01:32:48;;;;;;;10.53;3.27;;;;;;;;;;5075061;28;20280;-61
2022/10/19 01:35:21;;;;;;;6.27;3.83;;;;;;;;;;5073808;28;20539;-60
2022/10/19 01:37:50;;;;;;;8.53;3.87;;;;;;;;;;5074828;28;20451;-60
2022/10/19 01:40:21;;;;;;;7.15;3.72;;;;;;;;;;5074675;28;20909;-60
2022/10/19 01:42:51;;;;;;;5.30;3.20;;;;;;;;;;5074726;28;20846;-60
2022/10/19 01:45:22;;;;;;;4.10;3.73;;;;;;;;;;5074523;28;21007;-60
2022/10/19 01:47:53;;;;;;;8.38;3.67;;;;;;;;;;5074482;28;20475;-60
2022/10/19 01:50:24;;;;;;;3.50;3.20;;;;;;;;;;5074462;28;20652;-60
2022/10/19 01:52:52;;;;;;;7.80;3.30;;;;;;;;;;5074429;28;20452;-60
2022/10/19 01:55:19;;;;;;;5.47;3.23;;;;;;;;;;5074541;28;20448;-60
2022/10/19 01:57:48;;;;;;;6.70;3.57;;;;;;;;;;5074442;28;20454;-60
2022/10/19 02:00:17;;;;;;;4.00;3.67;;;;;;;;;;5074334;28;20452;-60
2022/10/19 02:02:46;;;;;;;3.90;3.53;;;;;;;;;;5056466;28;20470;-60
2022/10/19 02:05:13;;;;;;;6.87;3.10;;;;;;;;;;5074125;28;20666;-60
2022/10/19 02:07:41;;;;;;;7.10;3.43;;;;;;;;;;5074066;28;20942;-60
2022/10/19 02:10:09;;;;;;;3.93;2.77;;;;;;;;;;5074136;28;20469;-60
2022/10/19 02:12:37;;;;;;;6.80;3.10;;;;;;;;;;5074068;28;20449;-60
2022/10/19 02:15:07;;;;;;;9.10;2.80;;;;;;;;;;5073960;28;20443;-60
2022/10/19 02:17:36;;;;;;;5.00;3.37;;;;;;;;;;5074177;28;20451;-60
2022/10/19 02:20:04;;;;;;;4.00;2.63;;;;;;;;;;5073817;28;20957;-60
2022/10/19 02:22:31;;;;;;;4.17;3.00;;;;;;;;;;5074159;28;20542;-60
2022/10/19 02:24:58;;;;;;;8.37;3.23;;;;;;;;;;5073866;28;20532;-60
2022/10/19 02:27:25;;;;;;;4.70;2.63;;;;;;;;;;5073746;28;20453;-60
2022/10/19 02:29:52;;;;;;;4.20;2.57;;;;;;;;;;5073707;28;20454;-60
2022/10/19 02:32:19;;;;;;;5.03;2.50;;;;;;;;;;5073596;28;20802;-60
2022/10/19 02:34:46;;;;;;;5.73;2.77;;;;;;;;;;5073475;28;20972;-60
2022/10/19 02:37:15;;;;;;;3.70;2.80;;;;;;;;;;5073542;28;20458;-60
2022/10/19 02:39:41;;;;;;;7.80;3.30;;;;;;;;;;5073606;28;20461;-60
2022/10/19 02:42:11;;;;;;;5.80;2.73;;;;;;;;;;5073465;28;20454;-60
2022/10/19 02:44:40;;;;;;;5.30;2.60;;;;;;;;;;5073312;28;20574;-60
2022/10/19 02:47:10;;;;;;;8.70;2.63;;;;;;;;;;5073156;28;20444;-60
2022/10/19 02:49:38;;;;;;;2.60;2.13;;;;;;;;;;5073417;28;20447;-59
2022/10/19 02:52:06;;;;;;;3.10;2.60;;;;;;;;;;5073446;28;20489;-60
2022/10/19 02:54:34;;;;;;;4.67;3.17;;;;;;;;;;5073279;28;20436;-60
2022/10/19 02:57:01;;;;;;;4.47;2.97;;;;;;;;;;5073187;28;20446;-60
2022/10/19 02:59:28;;;;;;;6.47;2.90;;;;;;;;;;5073131;28;20444;-61
2022/10/19 03:01:55;;;;;;;7.67;3.00;;;;;;;;;;5073557;28;20443;-60
2022/10/19 03:04:22;;;;;;;4.47;2.80;;;;;;;;;;5073232;28;20838;-60
2022/10/19 03:06:49;;;;;;;7.65;2.92;;;;;;;;;;5073268;28;20534;-60
2022/10/19 03:09:16;;;;;;;3.60;2.30;;;;;;;;;;5073146;28;20538;-60
2022/10/19 03:11:44;;;;;;;7.00;2.30;;;;;;;;;;5073005;28;20497;-60
2022/10/19 03:14:11;;;;;;;4.50;2.10;;;;;;;;;;5073012;28;20450;-60
2022/10/19 03:16:38;;;;;;;3.57;1.93;;;;;;;;;;5073195;28;20455;-60
2022/10/19 03:19:05;;;;;;;7.47;2.60;;;;;;;;;;5073024;28;20444;-60
2022/10/19 03:21:34;;;;;;;4.43;2.37;;;;;;;;;;5072985;28;20448;-60
2022/10/19 03:24:00;;;;;;;5.73;2.30;;;;;;;;;;5072886;28;20571;-60
2022/10/19 03:26:27;;;;;;;8.20;2.00;;;;;;;;;;5072781;28;20451;-60
2022/10/19 03:28:56;;;;;;;8.83;2.33;;;;;;;;;;5073096;28;20536;-60
2022/10/19 03:31:23;;;;;;;4.70;2.23;;;;;;;;;;5072909;28;20447;-60
2022/10/19 03:33:50;;;;;;;4.23;2.40;;;;;;;;;;5073158;28;20489;-60
2022/10/19 03:36:17;;;;;;;5.07;3.20;;;;;;;;;;5072777;28;20816;-60
2022/10/19 03:38:44;;;;;;;5.03;2.43;;;;;;;;;;5072752;28;20579;-60
2022/10/19 03:41:11;;;;;;;4.97;2.00;;;;;;;;;;5072678;28;20450;-60
2022/10/19 03:43:40;;;;;;;5.13;2.50;;;;;;;;;;5072711;28;20509;-60
2022/10/19 03:46:08;;;;;;;7.47;3.50;;;;;;;;;;5072742;28;20455;-60
2022/10/19 03:48:35;;;;;;;5.87;2.20;;;;;;;;;;5072525;28;20475;-60
2022/10/19 03:51:04;;;;;;;6.70;2.40;;;;;;;;;;5072586;28;20454;-60
2022/10/19 03:53:31;;;;;;;5.00;2.20;;;;;;;;;;5072543;28;20448;-60
2022/10/19 03:56:01;;;;;;;6.50;2.60;;;;;;;;;;5072751;28;20193;-60
2022/10/19 03:58:28;;;;;;;2.73;2.07;;;;;;;;;;5073863;28;20943;-60
2022/10/19 04:00:55;;;;;;;6.73;2.00;;;;;;;;;;5076510;28;20534;-60
2022/10/19 04:03:23;;;;;;;2.90;2.30;;;;;;;;;;5076543;28;20830;-60
2022/10/19 04:05:52;;;;;;;3.13;1.80;;;;;;;;;;5076352;28;20447;-60
2022/10/19 04:08:19;;;;;;;8.20;2.00;;;;;;;;;;5076541;28;20445;-60
2022/10/19 04:10:45;;;;;;;4.40;2.23;;;;;;;;;;5076422;28;20764;-60
2022/10/19 04:13:12;;;;;;;3.33;2.07;;;;;;;;;;5076481;28;20542;-60
2022/10/19 04:15:39;;;;;;;2.70;2.20;;;;;;;;;;5076384;28;20814;-60
2022/10/19 04:18:06;;;;;;;4.97;1.47;;;;;;;;;;5076607;28;20451;-60
2022/10/19 04:20:34;;;;;;;3.57;1.70;;;;;;;;;;5076125;28;20803;-60
2022/10/19 04:23:01;;;;;;;7.83;2.37;;;;;;;;;;5076285;28;20485;-60
2022/10/19 04:25:28;;;;;;;4.20;1.53;;;;;;;;;;5076042;28;20483;-60
2022/10/19 04:27:55;;;;;;;5.27;1.50;;;;;;;;;;5076100;28;20540;-59
2022/10/19 04:30:22;;;;;;;6.23;1.67;;;;;;;;;;5075919;28;20454;-60
2022/10/19 04:32:49;;;;;;;5.93;1.60;;;;;;;;;;5076118;28;20446;-60
2022/10/19 04:35:16;;;;;;;4.30;1.47;;;;;;;;;;5075813;28;20861;-60
2022/10/19 04:37:44;;;;;;;2.08;1.30;;;;;;;;;;5075950;28;20531;-60
2022/10/19 04:40:11;;;;;;;2.80;1.17;;;;;;;;;;5075888;28;20195;-60
2022/10/19 04:42:38;;;;;;;2.33;1.50;;;;;;;;;;5075780;28;20277;-60
2022/10/19 04:45:06;;;;;;;3.55;1.50;;;;;;;;;;5075744;28;20483;-60
2022/10/19 04:47:32;;;;;;;4.93;1.70;;;;;;;;;;5075339;28;20224;-60
2022/10/19 04:49:59;;;;;;;6.37;1.20;;;;;;;;;;5075734;28;20450;-60
2022/10/19 04:52:26;;;;;;;3.77;1.67;;;;;;;;;;5075709;28;20883;-60
2022/10/19 04:54:54;;;;;;;5.40;1.70;;;;;;;;;;5075622;28;20479;-60
2022/10/19 04:57:21;;;;;;;1.90;1.77;;;;;;;;;;5075531;28;20196;-60
2022/10/19 04:59:48;;;;;;;2.13;1.70;;;;;;;;;;5075418;28;20474;-60
2022/10/19 05:02:15;;;;;;;4.57;1.53;;;;;;;;;;5075221;28;20454;-60
2022/10/19 05:04:42;;;;;;;2.70;1.87;;;;;;;;;;5075230;28;20485;-60
2022/10/19 05:07:09;;;;;;;3.80;1.43;;;;;;;;;;5075309;28;20542;-60
2022/10/19 05:09:39;;;;;;;2.20;1.00;;;;;;;;;;5075130;28;20542;-60
2022/10/19 05:12:07;;;;;;;2.13;1.00;;;;;;;;;;5075135;28;20447;-60
2022/10/19 05:14:34;;;;;;;6.10;1.53;;;;;;;;;;5075089;28;20546;-60
2022/10/19 05:17:01;;;;;;;1.30;1.10;;;;;;;;;;5075061;28;20447;-60
2022/10/19 05:19:28;;;;;;;4.80;1.10;;;;;;;;;;5075197;28;20451;-60
2022/10/19 05:21:55;;;;;;;1.90;0.90;;;;;;;;;;5075075;28;20452;-60
2022/10/19 05:24:22;;;;;;;3.00;1.37;;;;;;;;;;5074861;28;20902;-60
2022/10/19 05:26:49;;;;;;;2.60;1.10;;;;;;;;;;5074913;28;20803;-60
2022/10/19 05:29:17;;;;;;;1.20;1.00;;;;;;;;;;5074747;28;20451;-60
2022/10/19 05:31:44;;;;;;;2.17;1.00;;;;;;;;;;5074875;28;20537;-60
2022/10/19 05:34:11;;;;;;;2.08;0.90;;;;;;;;;;5074835;28;20451;-60
2022/10/19 05:36:39;;;;;;;3.03;1.33;;;;;;;;;;5074571;28;20191;-60
2022/10/19 05:39:07;;;;;;;4.63;1.00;;;;;;;;;;5074906;28;20447;-60
2022/10/19 05:41:34;;;;;;;1.33;0.90;;;;;;;;;;5074608;28;20215;-60
2022/10/19 05:44:02;;;;;;;3.93;1.23;;;;;;;;;;5074437;28;20962;-60
2022/10/19 05:46:31;;;;;;;6.07;1.53;;;;;;;;;;5074517;28;20538;-60
2022/10/19 05:48:58;;;;;;;2.23;0.87;;;;;;;;;;5074359;28;20483;-60
2022/10/19 05:51:26;;;;;;;3.00;0.80;;;;;;;;;;5074565;28;20451;-60
2022/10/19 05:53:54;;;;;;;2.70;1.23;;;;;;;;;;5074375;28;20543;-60
2022/10/19 05:56:23;;;;;;;6.00;1.30;;;;;;;;;;5073999;28;20454;-60
2022/10/19 05:58:49;;;;;;;2.80;0.90;;;;;;;;;;5074276;28;20451;-60
2022/10/19 06:01:17;;;;;;;2.63;1.30;;;;;;;;;;5073985;28;20546;-61
2022/10/19 06:03:46;;;;;;;7.93;1.80;;;;;;;;;;5073954;28;21032;-60
2022/10/19 06:06:13;;;;;;;7.47;1.30;;;;;;;;;;5074052;28;20538;-60
2022/10/19 06:08:40;;;;;;;2.47;1.10;;;;;;;;;;5074014;28;20934;-60
2022/10/19 06:11:08;;;;;;;3.13;1.20;;;;;;;;;;5073710;28;20546;-60
2022/10/19 06:13:35;;;;;;;4.40;1.30;;;;;;;;;;5073917;28;20513;-60
2022/10/19 06:16:03;;;;;;;5.80;1.27;;;;;;;;;;5073797;28;20510;-60
2022/10/19 06:18:30;;;;;;;3.75;1.13;;;;;;;;;;5073843;28;20528;-60
2022/10/19 06:21:01;;;;;;;1.87;1.10;;;;;;;;;;5073319;28;20196;-60
2022/10/19 06:23:28;;;;;;;2.10;1.20;;;;;;;;;;5073491;28;20459;-61
2022/10/19 06:25:55;;;;;;;2.70;1.03;;;;;;;;;;5073568;28;20911;-61
2022/10/19 06:28:22;;;;;;;1.63;0.80;;;;;;;;;;5073665;28;20534;-60
2022/10/19 06:30:49;;;;;;;3.87;1.00;;;;;;;;;;5073580;28;20916;-60
2022/10/19 06:33:16;;;;;;;3.10;1.05;;;;;;;;;;5073527;28;20535;-61
2022/10/19 06:35:43;;;;;;;1.83;1.02;;;;;;;;;;5073296;28;20605;-61
2022/10/19 06:38:12;;;;;;;3.80;1.13;;;;;;;;;;5073400;28;20276;-60
2022/10/19 06:40:39;;;;;;;3.23;0.97;;;;;;;;;;5073513;28;21010;-60
2022/10/19 06:43:06;;;;;;;3.53;1.07;;;;;;;;;;5073489;28;20589;-61
2022/10/19 06:45:33;;;;;;;1.93;1.03;;;;;;;;;;5073266;28;20483;-60
2022/10/19 06:48:00;;;;;;;2.63;0.93;;;;;;;;;;5073195;28;21016;-61
2022/10/19 06:50:27;;;;;;;4.90;1.40;;;;;;;;;;5073037;28;20447;-61
2022/10/19 06:52:54;;;;;;;4.97;1.40;;;;;;;;;;5072988;28;20454;-61
2022/10/19 06:55:22;;;;;;;3.73;1.10;;;;;;;;;;5073167;28;20538;-61
2022/10/19 06:57:49;;;;;;;3.90;1.43;;;;;;;;;;5073240;28;20539;-61
2022/10/19 07:00:16;;;;;;;1.97;1.03;;;;;;;;;;5072891;28;20452;-60
2022/10/19 07:02:44;;;;;;;5.30;1.67;;;;;;;;;;5073036;28;20448;-60
2022/10/19 07:05:11;;;;;;;4.30;1.40;;;;;;;;;;5072731;28;20890;-61
2022/10/19 07:07:38;;;;;;;2.50;1.10;;;;;;;;;;5072874;28;20447;-61
2022/10/19 07:10:05;;;;;;;2.10;1.13;;;;;;;;;;5073000;28;20447;-60
2022/10/19 07:12:33;;;;;;;5.00;1.20;;;;;;;;;;5072918;28;20534;-61
2022/10/19 07:15:00;;;;;;;6.57;1.23;;;;;;;;;;5072770;28;20201;-61
2022/10/19 07:17:27;;;;;;;3.00;1.20;;;;;;;;;;5072785;28;20479;-61
2022/10/19 07:19:54;;;;;;;6.05;1.45;;;;;;;;;;5073055;28;20781;-61
2022/10/19 07:22:21;;;;;;;6.40;1.70;;;;;;;;;;5072890;28;20501;-61
2022/10/19 07:24:48;;;;;;;7.87;1.73;;;;;;;;;;5072608;28;20982;-61
2022/10/19 07:27:15;;;;;;;4.03;1.43;;;;;;;;;;5072629;28;20552;-61
2022/10/19 07:29:43;;;;;;;3.60;1.20;;;;;;;;;;5072751;28;20871;-60
2022/10/19 07:32:10;;;;;;;3.20;0.90;;;;;;;;;;5072253;28;20546;-60
2022/10/19 07:34:37;;;;;;;3.10;1.03;;;;;;;;;;5072173;28;20752;-60
2022/10/19 07:37:04;;;;;;;3.90;1.37;;;;;;;;;;5072743;28;20450;-60
2022/10/19 07:39:31;;;;;;;7.60;1.73;;;;;;;;;;5072699;28;20450;-60
2022/10/19 07:41:58;;;;;;;2.97;1.00;;;;;;;;;;5072530;28;20451;-60
2022/10/19 07:44:25;;;;;;;6.00;1.00;;;;;;;;;;5072496;28;20534;-60
2022/10/19 07:46:53;;;;;;;2.97;1.30;;;;;;;;;;5072373;28;20909;-60
2022/10/19 07:49:20;;;;;;;5.00;1.50;;;;;;;;;;5072604;28;20450;-61
2022/10/19 07:51:47;;;;;;;6.27;2.33;;;;;;;;;;5072511;28;20444;-60
2022/10/19 07:54:14;;;;;;;4.00;1.27;;;;;;;;;;5072848;28;20478;-60
2022/10/19 07:56:41;;;;;;;5.60;1.33;;;;;;;;;;5072130;28;20534;-61
2022/10/19 07:59:08;;;;;;;4.47;1.20;;;;;;;;;;5072380;28;20446;-61
2022/10/19 08:01:39;;;;;;;2.20;1.17;;;;;;;;;;5071664;28;20454;-62
2022/10/19 08:04:08;;;;;;;6.32;1.13;;;;;;;;;;5075069;28;20454;-62
2022/10/19 08:06:36;;;;;;;3.10;1.10;;;;;;;;;;5081406;28;20218;-58
2022/10/19 08:09:03;;;;;;;5.97;1.70;;;;;;;;;;5081273;28;20458;-59
2022/10/19 08:11:32;;;;;;;3.70;1.20;;;;;;;;;;5112831;28;20452;-59
2022/10/19 08:14:01;;;;;;;5.00;1.23;;;;;;;;;;5102192;28;20922;-60
2022/10/19 08:16:31;;;;;;;7.90;1.30;;;;;;;;;;5083030;28;20455;-59
2022/10/19 08:18:59;;;;;;;4.43;1.17;;;;;;;;;;5077208;28;20463;-58
2022/10/19 08:21:28;;;;;;;1.90;0.80;;;;;;;;;;5099209;28;20446;-59
2022/10/19 08:23:55;;;;;;;1.33;1.20;;;;;;;;;;5091575;28;20280;-69
2022/10/19 08:26:22;;;;;;;2.93;1.00;;;;;;;;;;5089049;28;20571;-62
2022/10/19 08:28:49;;;;;;;3.70;0.93;;;;;;;;;;5087105;28;20817;-60
2022/10/19 08:31:16;;;;;;;3.97;1.40;;;;;;;;;;5085035;28;20478;-59
2022/10/19 08:33:44;;;;;;;4.50;1.40;;;;;;;;;;5091592;28;20437;-60
2022/10/19 08:36:12;;;;;;;4.80;1.67;;;;;;;;;;5092337;28;20457;-61
2022/10/19 08:38:42;;;;;;;5.43;1.40;;;;;;;;;;5104435;28;20449;-58
2022/10/19 08:41:16;;;;;;;1.70;0.97;;;;;;;;;;5085879;28;20455;-57
2022/10/19 08:43:48;;;;;;;5.33;1.70;;;;;;;;;;5073117;28;20546;-58
2022/10/19 08:46:20;;;;;;;3.40;1.40;;;;;;;;;;5074634;28;20587;-59
2022/10/19 08:48:47;;;;;;;2.15;1.10;;;;;;;;;;5075845;28;20471;-58
2022/10/19 08:51:14;;;;;;;4.83;1.00;;;;;;;;;;5075078;28;20275;-59
2022/10/19 08:53:45;;;;;;;2.10;0.80;;;;;;;;;;5094265;28;20453;-59
2022/10/19 08:56:18;;;;;;;2.23;1.00;;;;;;;;;;5116164;28;20441;-58
2022/10/19 08:58:52;;;;;;;2.03;1.00;;;;;;;;;;5105592;28;20473;-60
2022/10/19 09:01:25;;;;;;;1.33;1.00;;;;;;;;;;5095792;28;20489;-60
2022/10/19 09:03:56;;;;;;;3.10;1.07;;;;;;;;;;5095476;28;20533;-61
2022/10/19 09:06:26;;;;;;;1.83;0.90;;;;;;;;;;5095830;28;20561;-61
2022/10/19 09:08:55;;;;;;;3.80;2.07;;;;;;;;;;5095393;28;20479;-60
2022/10/19 09:11:24;;;;;;;3.33;1.33;;;;;;;;;;5104096;28;20540;-60
2022/10/19 09:13:55;;;;;;;4.68;1.50;;;;;;;;;;5115729;28;20453;-62
2022/10/19 09:16:22;;;;;;;2.40;1.20;;;;;;;;;;5115590;28;20227;-60
2022/10/19 09:18:49;;;;;;;4.60;1.40;;;;;;;;;;5115638;28;20937;-60
2022/10/19 09:21:19;;;;;;;2.57;1.00;;;;;;;;;;5084696;28;20491;-59
2022/10/19 09:23:50;;;;;;;3.40;1.87;;;;;;;;;;5111535;28;20793;-60
2022/10/19 09:26:19;;;;;;;6.40;1.87;;;;;;;;;;5107089;28;20478;-60
2022/10/19 09:28:50;;;;;;;3.57;1.30;;;;;;;;;;5074631;28;20457;-61
2022/10/19 09:31:21;;;;;;;6.00;1.40;;;;;;;;;;5074921;28;20470;-57
2022/10/19 09:33:50;;;;;;;3.20;1.30;;;;;;;;;;5083137;28;20458;-58
2022/10/19 09:36:17;;;;;;;6.93;1.57;;;;;;;;;;5080130;28;20448;-58
2022/10/19 09:38:44;;;;;;;3.00;1.50;;;;;;;;;;5077897;28;20451;-58
2022/10/19 09:41:14;;;;;;;4.60;1.50;;;;;;;;;;5075202;28;20457;-59
2022/10/19 09:43:49;;;;;;;4.20;1.80;;;;;;;;;;5083381;28;21047;-57
2022/10/19 09:46:22;;;;;;;3.33;1.20;;;;;;;;;;5074059;28;20489;-63
2022/10/19 09:48:50;;;;;;;4.80;1.67;;;;;;;;;;5076947;28;20466;-64
2022/10/19 09:51:17;;;;;;;1.70;0.90;;;;;;;;;;5095222;28;20532;-64
2022/10/19 09:53:45;;;;;;;2.70;1.60;;;;;;;;;;5087599;28;20450;-58
2022/10/19 09:56:18;;;;;;;2.30;1.03;;;;;;;;;;5081772;28;20455;-60
2022/10/19 09:58:49;;;;;;;3.17;1.10;;;;;;;;;;5076755;28;20550;-60
2022/10/19 10:01:30;;;;;;;2.90;1.10;;;;;;;;;;5080602;28;20844;-62
2022/10/19 10:04:05;;;;;;;1.47;0.90;;;;;;;;;;5073613;28;20475;-56
2022/10/19 10:06:32;;;;;;;2.30;0.90;;;;;;;;;;5072861;28;20923;-54
2022/10/19 10:08:59;;;;;;;3.40;0.97;;;;;;;;;;5075615;28;20848;-56
2022/10/19 10:11:27;;;;;;;1.57;0.83;;;;;;;;;;5077245;28;20457;-58
2022/10/19 10:13:56;;;;;;;2.40;1.10;;;;;;;;;;5073643;28;20566;-58
2022/10/19 10:16:24;;;;;;;1.00;0.80;;;;;;;;;;5079918;28;20829;-62
2022/10/19 10:18:54;;;;;;;1.03;0.90;;;;;;;;;;5087686;28;20189;-61
2022/10/19 10:21:22;;;;;;;2.70;0.90;;;;;;;;;;5086728;28;20447;-60
2022/10/19 10:23:59;;;;;;;4.27;1.10;;;;;;;;;;5093885;28;20499;-60
2022/10/19 10:26:26;;;;;;;2.40;1.43;;;;;;;;;;5082788;28;20486;-60
2022/10/19 10:28:53;;;;;;;3.70;0.90;;;;;;;;;;5090486;28;20508;-60
2022/10/19 10:31:23;;;;;;;2.60;1.00;;;;;;;;;;5085091;28;20891;-61
2022/10/19 10:33:54;;;;;;;2.03;1.67;;;;;;;;;;5073482;28;20470;-60
2022/10/19 10:36:23;;;;;;;2.40;0.80;;;;;;;;;;5073419;28;20197;-62
2022/10/19 10:38:51;;;;;;;2.03;0.67;;;;;;;;;;5075608;28;20963;-60
2022/10/19 10:41:21;;;;;;;1.53;0.90;;;;;;;;;;5080129;28;20562;-60
2022/10/19 10:43:53;;;;;;;1.73;0.70;;;;;;;;;;5085177;28;20473;-59
2022/10/19 10:46:24;;;;;;;4.67;1.03;;;;;;;;;;5087413;28;20475;-57
2022/10/19 10:48:55;;;;;;;7.40;1.07;;;;;;;;;;5073083;28;20544;-59
2022/10/19 10:51:24;;;;;;;1.90;0.77;;;;;;;;;;5085796;28;21001;-60
2022/10/19 10:53:51;;;;;;;1.33;0.70;;;;;;;;;;5100384;28;20534;-60
2022/10/19 10:56:25;;;;;;;1.47;0.80;;;;;;;;;;5093355;28;21029;-61
2022/10/19 10:58:56;;;;;;;1.27;0.80;;;;;;;;;;5093483;28;20481;-59
2022/10/19 11:01:27;;;;;;;4.40;0.80;;;;;;;;;;5083149;28;20447;-58
2022/10/19 11:03:57;;;;;;;3.73;0.70;;;;;;;;;;5083451;28;20443;-58
2022/10/19 11:06:25;;;;;;;1.30;1.20;;;;;;;;;;5072999;28;20514;-59
2022/10/19 11:08:57;;;;;;;1.07;0.77;;;;;;;;;;5075753;28;20482;-62
2022/10/19 11:11:26;;;;;;;2.20;0.87;;;;;;;;;;5072658;28;20451;-59
2022/10/19 11:13:55;;;;;;;2.50;0.80;;;;;;;;;;5080696;28;20448;-60
2022/10/19 11:16:24;;;;;;;2.23;0.87;;;;;;;;;;5083277;28;20455;-60
2022/10/19 11:18:54;;;;;;;0.70;0.60;;;;;;;;;;5077750;28;20905;-59
2022/10/19 11:21:23;;;;;;;3.27;0.83;;;;;;;;;;5079618;28;20535;-59
2022/10/19 11:23:55;;;;;;;1.10;0.80;;;;;;;;;;5090856;28;20452;-59
2022/10/19 11:26:28;;;;;;;1.10;0.90;;;;;;;;;;5093177;28;20514;-58
2022/10/19 11:29:03;;;;;;;2.53;0.80;;;;;;;;;;5092816;28;20489;-59
2022/10/19 11:31:39;;;;;;;1.47;0.80;;;;;;;;;;5092949;28;20550;-59
2022/10/19 11:34:09;;;;;;;1.70;0.80;;;;;;;;;;5079639;28;20640;-60
2022/10/19 11:36:41;;;;;;;1.73;0.77;;;;;;;;;;5092689;28;20897;-59
2022/10/19 11:39:18;;;;;;;2.07;0.70;;;;;;;;;;5087726;28;20550;-60
2022/10/19 11:41:48;;;;;;;1.10;0.77;;;;;;;;;;5072242;28;20452;-60
2022/10/19 11:44:22;;;;;;;0.90;0.70;;;;;;;;;;5081521;28;20534;-57
2022/10/19 11:46:55;;;;;;;1.57;0.90;;;;;;;;;;5090541;28;20484;-58
2022/10/19 11:49:30;;;;;;;0.90;0.70;;;;;;;;;;5075033;28;20590;-59
2022/10/19 11:52:00;;;;;;;1.77;0.70;;;;;;;;;;5085562;28;20273;-60
2022/10/19 11:54:36;;;;;;;2.60;0.73;;;;;;;;;;5092667;28;20523;-57
2022/10/19 11:57:04;;;;;;;0.80;0.57;;;;;;;;;;5087272;28;20791;-65
2022/10/19 11:59:38;;;;;;;1.60;1.30;;;;;;;;;;5072593;28;20542;-62
2022/10/19 12:02:14;;;;;;;0.80;0.70;;;;;;;;;;5075123;28;20537;-58
2022/10/19 12:04:50;;;;;;;3.03;1.10;;;;;;;;;;5088678;28;20529;-58
2022/10/19 12:07:33;;;;;;;2.50;0.70;;;;;;;;;;5071697;28;20570;-59
2022/10/19 12:10:03;;;;;;;1.87;1.43;;;;;;;;;;5078796;28;20457;-60
2022/10/19 12:12:32;;;;;;;2.17;0.63;;;;;;;;;;5091089;28;20864;-59
2022/10/19 12:15:03;;;;;;;0.87;0.60;;;;;;;;;;5083954;28;20546;-59
2022/10/19 12:17:33;;;;;;;2.47;0.77;;;;;;;;;;5074784;28;20456;-59
2022/10/19 12:20:03;;;;;;;0.80;0.73;;;;;;;;;;5076212;28;20534;-59
2022/10/19 12:22:30;;;;;;;1.97;0.80;;;;;;;;;;5091966;28;20448;-59
2022/10/19 12:24:58;;;;;;;1.73;0.80;;;;;;;;;;5095714;28;20446;-59
2022/10/19 12:27:28;;;;;;;1.60;1.10;;;;;;;;;;5096147;28;20481;-58
2022/10/19 12:29:55;;;;;;;1.50;0.93;;;;;;;;;;5096091;28;20484;-59
2022/10/19 12:32:24;;;;;;;3.90;1.80;;;;;;;;;;5088339;28;20477;-59
2022/10/19 12:34:58;;;;;;;1.60;1.37;;;;;;;;;;5075941;28;20546;-59
2022/10/19 12:37:26;;;;;;;2.10;1.50;;;;;;;;;;5087908;28;20503;-59
2022/10/19 12:39:57;;;;;;;2.97;1.63;;;;;;;;;;5091116;28;20442;-59
2022/10/19 12:42:28;;;;;;;4.53;1.60;;;;;;;;;;5086316;28;20590;-59
2022/10/19 12:45:12;;;;;;;1.90;0.90;;;;;;;;;;5087667;28;20866;-59
2022/10/19 12:47:39;;;;;;;4.10;1.53;;;;;;;;;;5075198;28;20489;-59
2022/10/19 12:50:08;;;;;;;1.83;0.70;;;;;;;;;;5075441;28;20546;-59
2022/10/19 12:52:40;;;;;;;0.80;0.70;;;;;;;;;;5075389;28;20189;-59
2022/10/19 12:55:24;;;;;;;2.23;0.80;;;;;;;;;;5075069;28;20843;-59
2022/10/19 12:57:57;;;;;;;1.20;0.60;;;;;;;;;;5075546;28;20478;-59
2022/10/19 13:00:25;;;;;;;1.10;1.00;;;;;;;;;;5075354;28;20527;-59
2022/10/19 13:02:56;;;;;;;2.00;1.13;;;;;;;;;;5075218;28;20554;-59
2022/10/19 13:05:26;;;;;;;1.77;1.10;;;;;;;;;;5075350;28;20542;-60
2022/10/19 13:07:53;;;;;;;2.00;0.97;;;;;;;;;;5075071;28;20570;-59
2022/10/19 13:10:22;;;;;;;1.70;1.40;;;;;;;;;;5075358;28;20483;-59
2022/10/19 13:12:49;;;;;;;2.38;1.00;;;;;;;;;;5074994;28;20451;-59
2022/10/19 13:15:34;;;;;;;0.85;0.70;;;;;;;;;;5075153;28;20284;-59
2022/10/19 13:18:01;;;;;;;3.03;0.97;;;;;;;;;;5074320;28;20229;-59
2022/10/19 13:20:46;;;;;;;2.77;0.80;;;;;;;;;;5075070;28;20529;-59
2022/10/19 13:23:32;;;;;;;2.10;0.80;;;;;;;;;;5074981;28;20443;-59
2022/10/19 13:26:14;;;;;;;2.97;1.10;;;;;;;;;;5074730;28;20537;-59
2022/10/19 13:28:52;;;;;;;1.73;1.00;;;;;;;;;;5074120;28;20526;-59
2022/10/19 13:31:29;;;;;;;1.63;1.00;;;;;;;;;;5074872;28;20538;-59
2022/10/19 13:33:56;;;;;;;1.00;0.90;;;;;;;;;;5074769;28;20449;-59
2022/10/19 13:36:24;;;;;;;2.78;0.85;;;;;;;;;;5074480;28;20535;-59
2022/10/19 13:39:12;;;;;;;3.33;1.00;;;;;;;;;;5074453;28;20288;-59
2022/10/19 13:41:46;;;;;;;2.40;0.97;;;;;;;;;;5074615;28;20454;-59
2022/10/19 13:44:20;;;;;;;2.40;0.90;;;;;;;;;;5074481;28;20443;-59
2022/10/19 13:46:51;;;;;;;1.63;0.83;;;;;;;;;;5074657;28;20578;-59
2022/10/19 13:49:25;;;;;;;0.90;0.60;;;;;;;;;;5074147;28;20475;-59
2022/10/19 13:51:58;;;;;;;1.53;0.80;;;;;;;;;;5074242;28;20203;-60
2022/10/19 13:54:33;;;;;;;2.50;0.83;;;;;;;;;;5074391;28;20552;-59
2022/10/19 13:57:07;;;;;;;1.73;0.70;;;;;;;;;;5074206;28;20546;-59
2022/10/19 13:59:48;;;;;;;1.23;0.70;;;;;;;;;;5074121;28;20935;-59
2022/10/19 14:02:24;;;;;;;1.20;1.10;;;;;;;;;;5074370;28;20453;-59
2022/10/19 14:04:56;;;;;;;2.25;0.90;;;;;;;;;;5074108;28;20204;-59
2022/10/19 14:07:25;;;;;;;0.83;0.70;;;;;;;;;;5073968;28;20308;-59
2022/10/19 14:10:05;;;;;;;2.07;0.80;;;;;;;;;;5073945;28;20451;-60
2022/10/19 14:12:34;;;;;;;1.87;0.80;;;;;;;;;;5074115;28;20483;-59
2022/10/19 14:15:11;;;;;;;2.50;0.83;;;;;;;;;;5073875;28;20485;-59
2022/10/19 14:17:42;;;;;;;3.17;0.80;;;;;;;;;;5073811;28;20457;-59
2022/10/19 14:20:24;;;;;;;2.10;1.00;;;;;;;;;;5073740;28;20192;-59
2022/10/19 14:22:51;;;;;;;3.50;0.93;;;;;;;;;;5073688;28;20813;-59
2022/10/19 14:25:19;;;;;;;1.43;0.87;;;;;;;;;;5073667;28;20538;-59
2022/10/19 14:27:46;;;;;;;4.40;0.83;;;;;;;;;;5073723;28;21014;-59
2022/10/19 14:30:22;;;;;;;4.53;1.00;;;;;;;;;;5073423;28;20969;-59
2022/10/19 14:32:49;;;;;;;1.88;0.80;;;;;;;;;;5073535;28;20454;-59
2022/10/19 14:35:19;;;;;;;1.97;0.83;;;;;;;;;;5073281;28;20193;-59
2022/10/19 14:37:46;;;;;;;1.00;0.70;;;;;;;;;;5073517;28;20648;-59
2022/10/19 14:40:23;;;;;;;1.57;0.80;;;;;;;;;;5073163;28;20657;-59
2022/10/19 14:42:50;;;;;;;1.13;1.00;;;;;;;;;;5072923;28;20478;-59
2022/10/19 14:45:20;;;;;;;0.80;0.73;;;;;;;;;;5073209;28;21027;-59
2022/10/19 14:47:58;;;;;;;1.23;0.70;;;;;;;;;;5073004;28;20491;-59
2022/10/19 14:50:28;;;;;;;1.57;0.80;;;;;;;;;;5073260;28;20555;-59
2022/10/19 14:52:58;;;;;;;1.00;0.90;;;;;;;;;;5073093;28;20487;-59
2022/10/19 14:55:35;;;;;;;2.27;1.00;;;;;;;;;;5073163;28;20893;-59